sensor_id;sensor_type;location;lat;lon;timestamp;P1;durP1;ratioP1;P2;durP2;ratioP2
32469;SDS011;18925;48.356;10.864;2023-01-16T00:00:13;5.88;;;1.63;;
32469;SDS011;18925;48.356;10.864;2023-01-16T00:00:44;4.43;;;1.50;;
32469;SDS011;18925;48.356;10.864;2023-01-16T00:01:15;5.75;;;1.60;;
32469;SDS011;18925;48.356;10.864;2023-01-16T00:01:47;6.88;;;1.95;;
32469;SDS011;18925;48.356;10.864;2023-01-16T00:02:17;2.30;;;1.15;;
32469;SDS011;18925;48.356;10.864;2023-01-16T00:02:48;5.22;;;1.35;;
32469;SDS011;18925;48.356;10.864;2023-01-16T00:03:19;4.25;;;1.55;;
32469;SDS011;18925;48.356;10.864;2023-01-16T00:03:50;4.85;;;1.23;;
32469;SDS011;18925;48.356;10.864;2023-01-16T00:04:21;3.38;;;1.33;;
32469;SDS011;18925;48.356;10.864;2023-01-16T00:04:52;5.22;;;1.65;;
32469;SDS011;18925;48.356;10.864;2023-01-16T00:05:22;5.45;;;1.63;;
32469;SDS011;18925;48.356;10.864;2023-01-16T00:05:53;2.88;;;1.67;;
32469;SDS011;18925;48.356;10.864;2023-01-16T00:06:24;6.60;;;1.67;;
32469;SDS011;18925;48.356;10.864;2023-01-16T00:06:54;4.15;;;1.20;;
32469;SDS011;18925;48.356;10.864;2023-01-16T00:07:25;2.42;;;1.25;;
32469;SDS011;18925;48.356;10.864;2023-01-16T00:07:56;3.30;;;1.60;;
32469;SDS011;18925;48.356;10.864;2023-01-16T00:08:27;6.22;;;1.27;;
32469;SDS011;18925;48.356;10.864;2023-01-16T00:08:57;2.95;;;1.58;;
32469;SDS011;18925;48.356;10.864;2023-01-16T00:09:28;5.53;;;1.80;;
32469;SDS011;18925;48.356;10.864;2023-01-16T00:09:59;4.63;;;1.98;;
32469;SDS011;18925;48.356;10.864;2023-01-16T00:10:29;2.53;;;1.45;;
32469;SDS011;18925;48.356;10.864;2023-01-16T00:11:00;3.65;;;1.65;;
32469;SDS011;18925;48.356;10.864;2023-01-16T00:11:30;5.30;;;1.60;;
32469;SDS011;18925;48.356;10.864;2023-01-16T00:12:01;3.53;;;1.63;;
32469;SDS011;18925;48.356;10.864;2023-01-16T00:12:32;5.28;;;2.10;;
32469;SDS011;18925;48.356;10.864;2023-01-16T00:13:02;3.30;;;1.75;;
32469;SDS011;18925;48.356;10.864;2023-01-16T00:13:33;5.43;;;2.28;;
32469;SDS011;18925;48.356;10.864;2023-01-16T00:14:04;2.78;;;1.80;;
32469;SDS011;18925;48.356;10.864;2023-01-16T00:14:34;4.07;;;1.40;;
32469;SDS011;18925;48.356;10.864;2023-01-16T00:15:05;3.33;;;1.50;;
32469;SDS011;18925;48.356;10.864;2023-01-16T00:15:36;4.78;;;1.52;;
32469;SDS011;18925;48.356;10.864;2023-01-16T00:16:07;4.00;;;1.60;;
32469;SDS011;18925;48.356;10.864;2023-01-16T00:16:38;3.78;;;1.67;;
32469;SDS011;18925;48.356;10.864;2023-01-16T00:17:09;3.80;;;1.52;;
32469;SDS011;18925;48.356;10.864;2023-01-16T00:17:39;4.85;;;1.48;;
32469;SDS011;18925;48.356;10.864;2023-01-16T00:18:10;3.50;;;1.90;;
32469;SDS011;18925;48.356;10.864;2023-01-16T00:18:40;8.25;;;1.98;;
32469;SDS011;18925;48.356;10.864;2023-01-16T00:19:11;5.20;;;1.83;;
32469;SDS011;18925;48.356;10.864;2023-01-16T00:19:42;5.95;;;1.40;;
32469;SDS011;18925;48.356;10.864;2023-01-16T00:20:13;7.40;;;1.92;;
32469;SDS011;18925;48.356;10.864;2023-01-16T00:20:44;6.22;;;1.50;;
32469;SDS011;18925;48.356;10.864;2023-01-16T00:21:16;3.42;;;1.38;;
32469;SDS011;18925;48.356;10.864;2023-01-16T00:21:47;7.82;;;1.67;;
32469;SDS011;18925;48.356;10.864;2023-01-16T00:22:18;3.42;;;1.40;;
32469;SDS011;18925;48.356;10.864;2023-01-16T00:22:48;4.38;;;1.98;;
32469;SDS011;18925;48.356;10.864;2023-01-16T00:23:19;8.23;;;2.15;;
32469;SDS011;18925;48.356;10.864;2023-01-16T00:23:49;4.20;;;1.60;;
32469;SDS011;18925;48.356;10.864;2023-01-16T00:24:20;3.75;;;1.60;;
32469;SDS011;18925;48.356;10.864;2023-01-16T00:24:51;5.43;;;1.83;;
32469;SDS011;18925;48.356;10.864;2023-01-16T00:25:21;4.72;;;1.90;;
32469;SDS011;18925;48.356;10.864;2023-01-16T00:25:52;5.45;;;1.85;;
32469;SDS011;18925;48.356;10.864;2023-01-16T00:26:23;3.50;;;1.80;;
32469;SDS011;18925;48.356;10.864;2023-01-16T00:26:55;3.13;;;1.40;;
32469;SDS011;18925;48.356;10.864;2023-01-16T00:27:26;5.18;;;1.73;;
32469;SDS011;18925;48.356;10.864;2023-01-16T00:27:56;4.75;;;1.55;;
32469;SDS011;18925;48.356;10.864;2023-01-16T00:28:27;4.25;;;1.45;;
32469;SDS011;18925;48.356;10.864;2023-01-16T00:28:57;4.68;;;1.80;;
32469;SDS011;18925;48.356;10.864;2023-01-16T00:29:28;4.35;;;1.60;;
32469;SDS011;18925;48.356;10.864;2023-01-16T00:29:59;5.43;;;1.33;;
32469;SDS011;18925;48.356;10.864;2023-01-16T00:30:29;5.55;;;1.65;;
32469;SDS011;18925;48.356;10.864;2023-01-16T00:31:00;3.28;;;1.60;;
32469;SDS011;18925;48.356;10.864;2023-01-16T00:31:31;4.13;;;1.58;;
32469;SDS011;18925;48.356;10.864;2023-01-16T00:32:01;8.70;;;1.75;;
32469;SDS011;18925;48.356;10.864;2023-01-16T00:32:32;3.33;;;1.63;;
32469;SDS011;18925;48.356;10.864;2023-01-16T00:33:03;2.95;;;1.55;;
32469;SDS011;18925;48.356;10.864;2023-01-16T00:33:34;4.63;;;1.60;;
32469;SDS011;18925;48.356;10.864;2023-01-16T00:34:05;9.50;;;1.90;;
32469;SDS011;18925;48.356;10.864;2023-01-16T00:34:35;1.98;;;1.50;;
32469;SDS011;18925;48.356;10.864;2023-01-16T00:35:06;5.15;;;1.65;;
32469;SDS011;18925;48.356;10.864;2023-01-16T00:35:37;7.22;;;1.60;;
32469;SDS011;18925;48.356;10.864;2023-01-16T00:36:09;1.48;;;1.00;;
32469;SDS011;18925;48.356;10.864;2023-01-16T00:36:40;2.92;;;1.52;;
32469;SDS011;18925;48.356;10.864;2023-01-16T00:37:11;5.18;;;1.42;;
32469;SDS011;18925;48.356;10.864;2023-01-16T00:37:41;2.35;;;1.35;;
32469;SDS011;18925;48.356;10.864;2023-01-16T00:38:12;3.35;;;1.55;;
32469;SDS011;18925;48.356;10.864;2023-01-16T00:38:42;6.38;;;1.73;;
32469;SDS011;18925;48.356;10.864;2023-01-16T00:39:13;2.58;;;1.30;;
32469;SDS011;18925;48.356;10.864;2023-01-16T00:39:44;3.85;;;1.52;;
32469;SDS011;18925;48.356;10.864;2023-01-16T00:40:14;6.53;;;1.30;;
32469;SDS011;18925;48.356;10.864;2023-01-16T00:40:45;4.18;;;1.50;;
32469;SDS011;18925;48.356;10.864;2023-01-16T00:41:16;2.70;;;1.23;;
32469;SDS011;18925;48.356;10.864;2023-01-16T00:41:47;4.30;;;1.27;;
32469;SDS011;18925;48.356;10.864;2023-01-16T00:42:18;4.47;;;1.40;;
32469;SDS011;18925;48.356;10.864;2023-01-16T00:42:48;3.45;;;1.30;;
32469;SDS011;18925;48.356;10.864;2023-01-16T00:43:19;3.20;;;1.30;;
32469;SDS011;18925;48.356;10.864;2023-01-16T00:43:50;6.93;;;1.80;;
32469;SDS011;18925;48.356;10.864;2023-01-16T00:44:22;3.15;;;1.48;;
32469;SDS011;18925;48.356;10.864;2023-01-16T00:44:52;3.45;;;1.40;;
32469;SDS011;18925;48.356;10.864;2023-01-16T00:45:23;4.07;;;1.58;;
32469;SDS011;18925;48.356;10.864;2023-01-16T00:45:53;3.75;;;1.40;;
32469;SDS011;18925;48.356;10.864;2023-01-16T00:46:26;5.95;;;1.15;;
32469;SDS011;18925;48.356;10.864;2023-01-16T00:46:59;6.60;;;1.52;;
32469;SDS011;18925;48.356;10.864;2023-01-16T00:47:30;4.18;;;1.42;;
32469;SDS011;18925;48.356;10.864;2023-01-16T00:48:00;8.25;;;1.20;;
32469;SDS011;18925;48.356;10.864;2023-01-16T00:48:31;2.63;;;1.13;;
32469;SDS011;18925;48.356;10.864;2023-01-16T00:49:02;4.70;;;1.38;;
32469;SDS011;18925;48.356;10.864;2023-01-16T00:49:32;3.67;;;1.42;;
32469;SDS011;18925;48.356;10.864;2023-01-16T00:50:03;6.32;;;1.40;;
32469;SDS011;18925;48.356;10.864;2023-01-16T00:50:34;2.05;;;1.10;;
32469;SDS011;18925;48.356;10.864;2023-01-16T00:51:05;1.83;;;1.35;;
32469;SDS011;18925;48.356;10.864;2023-01-16T00:51:36;4.93;;;1.50;;
32469;SDS011;18925;48.356;10.864;2023-01-16T00:52:06;4.57;;;1.58;;
32469;SDS011;18925;48.356;10.864;2023-01-16T00:52:37;4.38;;;1.65;;
32469;SDS011;18925;48.356;10.864;2023-01-16T00:53:08;6.28;;;1.50;;
32469;SDS011;18925;48.356;10.864;2023-01-16T00:53:39;3.50;;;1.65;;
32469;SDS011;18925;48.356;10.864;2023-01-16T00:54:10;2.60;;;1.10;;
32469;SDS011;18925;48.356;10.864;2023-01-16T00:54:40;5.05;;;1.35;;
32469;SDS011;18925;48.356;10.864;2023-01-16T00:55:11;1.50;;;0.90;;
32469;SDS011;18925;48.356;10.864;2023-01-16T00:55:42;5.00;;;1.65;;
32469;SDS011;18925;48.356;10.864;2023-01-16T00:56:12;5.47;;;1.52;;
32469;SDS011;18925;48.356;10.864;2023-01-16T00:56:43;3.67;;;1.50;;
32469;SDS011;18925;48.356;10.864;2023-01-16T00:57:14;2.28;;;1.40;;
32469;SDS011;18925;48.356;10.864;2023-01-16T00:57:45;7.47;;;1.55;;
32469;SDS011;18925;48.356;10.864;2023-01-16T00:58:15;9.23;;;1.70;;
32469;SDS011;18925;48.356;10.864;2023-01-16T00:58:46;4.40;;;1.40;;
32469;SDS011;18925;48.356;10.864;2023-01-16T00:59:17;4.47;;;1.17;;
32469;SDS011;18925;48.356;10.864;2023-01-16T00:59:47;3.67;;;1.50;;
32469;SDS011;18925;48.356;10.864;2023-01-16T01:00:18;3.20;;;1.50;;
32469;SDS011;18925;48.356;10.864;2023-01-16T01:00:51;3.22;;;1.30;;
32469;SDS011;18925;48.356;10.864;2023-01-16T01:01:22;6.88;;;1.50;;
32469;SDS011;18925;48.356;10.864;2023-01-16T01:01:52;5.05;;;1.60;;
32469;SDS011;18925;48.356;10.864;2023-01-16T01:02:23;5.80;;;1.58;;
32469;SDS011;18925;48.356;10.864;2023-01-16T01:02:53;3.17;;;1.30;;
32469;SDS011;18925;48.356;10.864;2023-01-16T01:03:24;4.53;;;1.63;;
32469;SDS011;18925;48.356;10.864;2023-01-16T01:03:57;4.75;;;1.65;;
32469;SDS011;18925;48.356;10.864;2023-01-16T01:04:29;2.58;;;1.13;;
32469;SDS011;18925;48.356;10.864;2023-01-16T01:05:00;6.18;;;1.50;;
32469;SDS011;18925;48.356;10.864;2023-01-16T01:05:31;2.22;;;1.15;;
32469;SDS011;18925;48.356;10.864;2023-01-16T01:06:06;6.30;;;1.60;;
32469;SDS011;18925;48.356;10.864;2023-01-16T01:06:37;2.05;;;1.17;;
32469;SDS011;18925;48.356;10.864;2023-01-16T01:07:08;2.95;;;1.27;;
32469;SDS011;18925;48.356;10.864;2023-01-16T01:07:39;4.07;;;1.27;;
32469;SDS011;18925;48.356;10.864;2023-01-16T01:08:10;3.78;;;1.13;;
32469;SDS011;18925;48.356;10.864;2023-01-16T01:08:40;2.67;;;1.13;;
32469;SDS011;18925;48.356;10.864;2023-01-16T01:09:11;7.75;;;1.10;;
32469;SDS011;18925;48.356;10.864;2023-01-16T01:09:42;2.63;;;1.23;;
32469;SDS011;18925;48.356;10.864;2023-01-16T01:10:12;3.17;;;1.65;;
32469;SDS011;18925;48.356;10.864;2023-01-16T01:10:43;3.33;;;1.20;;
32469;SDS011;18925;48.356;10.864;2023-01-16T01:11:14;5.40;;;1.40;;
32469;SDS011;18925;48.356;10.864;2023-01-16T01:11:45;5.05;;;1.50;;
32469;SDS011;18925;48.356;10.864;2023-01-16T01:12:15;4.15;;;1.25;;
32469;SDS011;18925;48.356;10.864;2023-01-16T01:12:46;5.28;;;1.30;;
32469;SDS011;18925;48.356;10.864;2023-01-16T01:13:16;3.97;;;1.77;;
32469;SDS011;18925;48.356;10.864;2023-01-16T01:13:47;5.32;;;1.60;;
32469;SDS011;18925;48.356;10.864;2023-01-16T01:14:18;2.92;;;1.30;;
32469;SDS011;18925;48.356;10.864;2023-01-16T01:14:49;3.20;;;1.23;;
32469;SDS011;18925;48.356;10.864;2023-01-16T01:15:20;4.72;;;1.75;;
32469;SDS011;18925;48.356;10.864;2023-01-16T01:15:51;4.18;;;1.45;;
32469;SDS011;18925;48.356;10.864;2023-01-16T01:16:22;2.92;;;1.40;;
32469;SDS011;18925;48.356;10.864;2023-01-16T01:16:53;4.10;;;1.35;;
32469;SDS011;18925;48.356;10.864;2023-01-16T01:17:23;5.13;;;1.35;;
32469;SDS011;18925;48.356;10.864;2023-01-16T01:17:54;6.18;;;1.45;;
32469;SDS011;18925;48.356;10.864;2023-01-16T01:18:25;3.78;;;1.50;;
32469;SDS011;18925;48.356;10.864;2023-01-16T01:18:55;5.25;;;1.30;;
32469;SDS011;18925;48.356;10.864;2023-01-16T01:19:26;9.13;;;1.75;;
32469;SDS011;18925;48.356;10.864;2023-01-16T01:19:57;7.00;;;1.27;;
32469;SDS011;18925;48.356;10.864;2023-01-16T01:20:27;8.02;;;1.33;;
32469;SDS011;18925;48.356;10.864;2023-01-16T01:20:58;4.68;;;1.65;;
32469;SDS011;18925;48.356;10.864;2023-01-16T01:21:29;1.48;;;0.98;;
32469;SDS011;18925;48.356;10.864;2023-01-16T01:22:00;2.90;;;1.00;;
32469;SDS011;18925;48.356;10.864;2023-01-16T01:22:30;3.47;;;1.15;;
32469;SDS011;18925;48.356;10.864;2023-01-16T01:23:01;8.73;;;1.40;;
32469;SDS011;18925;48.356;10.864;2023-01-16T01:23:32;4.57;;;1.30;;
32469;SDS011;18925;48.356;10.864;2023-01-16T01:24:03;3.67;;;1.25;;
32469;SDS011;18925;48.356;10.864;2023-01-16T01:24:33;4.30;;;1.35;;
32469;SDS011;18925;48.356;10.864;2023-01-16T01:25:04;7.18;;;1.13;;
32469;SDS011;18925;48.356;10.864;2023-01-16T01:25:37;2.72;;;1.30;;
32469;SDS011;18925;48.356;10.864;2023-01-16T01:26:09;3.35;;;1.13;;
32469;SDS011;18925;48.356;10.864;2023-01-16T01:26:41;4.13;;;1.40;;
32469;SDS011;18925;48.356;10.864;2023-01-16T01:27:12;4.00;;;1.45;;
32469;SDS011;18925;48.356;10.864;2023-01-16T01:27:43;3.13;;;1.25;;
32469;SDS011;18925;48.356;10.864;2023-01-16T01:28:13;4.55;;;1.40;;
32469;SDS011;18925;48.356;10.864;2023-01-16T01:28:44;3.13;;;1.30;;
32469;SDS011;18925;48.356;10.864;2023-01-16T01:29:15;3.65;;;1.13;;
32469;SDS011;18925;48.356;10.864;2023-01-16T01:29:45;2.70;;;1.15;;
32469;SDS011;18925;48.356;10.864;2023-01-16T01:30:16;2.65;;;1.30;;
32469;SDS011;18925;48.356;10.864;2023-01-16T01:30:47;2.60;;;1.58;;
32469;SDS011;18925;48.356;10.864;2023-01-16T01:31:17;2.97;;;1.13;;
32469;SDS011;18925;48.356;10.864;2023-01-16T01:31:48;2.58;;;1.35;;
32469;SDS011;18925;48.356;10.864;2023-01-16T01:32:19;6.70;;;1.70;;
32469;SDS011;18925;48.356;10.864;2023-01-16T01:32:49;2.30;;;0.90;;
32469;SDS011;18925;48.356;10.864;2023-01-16T01:33:20;4.13;;;1.10;;
32469;SDS011;18925;48.356;10.864;2023-01-16T01:33:50;1.58;;;1.27;;
32469;SDS011;18925;48.356;10.864;2023-01-16T01:34:21;2.88;;;1.00;;
32469;SDS011;18925;48.356;10.864;2023-01-16T01:34:52;3.17;;;1.23;;
32469;SDS011;18925;48.356;10.864;2023-01-16T01:35:22;6.55;;;1.13;;
32469;SDS011;18925;48.356;10.864;2023-01-16T01:35:53;3.75;;;1.00;;
32469;SDS011;18925;48.356;10.864;2023-01-16T01:36:23;3.70;;;1.00;;
32469;SDS011;18925;48.356;10.864;2023-01-16T01:36:54;4.47;;;1.15;;
32469;SDS011;18925;48.356;10.864;2023-01-16T01:37:25;2.85;;;0.93;;
32469;SDS011;18925;48.356;10.864;2023-01-16T01:37:55;2.95;;;1.15;;
32469;SDS011;18925;48.356;10.864;2023-01-16T01:38:26;7.18;;;1.05;;
32469;SDS011;18925;48.356;10.864;2023-01-16T01:38:57;2.80;;;0.90;;
32469;SDS011;18925;48.356;10.864;2023-01-16T01:39:27;4.90;;;1.25;;
32469;SDS011;18925;48.356;10.864;2023-01-16T01:39:58;6.13;;;1.40;;
32469;SDS011;18925;48.356;10.864;2023-01-16T01:40:29;3.13;;;0.90;;
32469;SDS011;18925;48.356;10.864;2023-01-16T01:41:00;3.15;;;1.20;;
32469;SDS011;18925;48.356;10.864;2023-01-16T01:41:31;3.15;;;0.90;;
32469;SDS011;18925;48.356;10.864;2023-01-16T01:42:02;2.42;;;0.95;;
32469;SDS011;18925;48.356;10.864;2023-01-16T01:42:51;6.65;;;1.27;;
32469;SDS011;18925;48.356;10.864;2023-01-16T01:43:38;6.18;;;1.00;;
32469;SDS011;18925;48.356;10.864;2023-01-16T01:45:18;1.63;;;0.85;;
32469;SDS011;18925;48.356;10.864;2023-01-16T01:45:56;2.53;;;0.90;;
32469;SDS011;18925;48.356;10.864;2023-01-16T01:47:07;2.47;;;0.88;;
32469;SDS011;18925;48.356;10.864;2023-01-16T01:47:39;4.30;;;1.20;;
32469;SDS011;18925;48.356;10.864;2023-01-16T01:48:42;4.93;;;1.00;;
32469;SDS011;18925;48.356;10.864;2023-01-16T01:49:54;3.50;;;0.80;;
32469;SDS011;18925;48.356;10.864;2023-01-16T01:51:18;5.03;;;1.00;;
32469;SDS011;18925;48.356;10.864;2023-01-16T01:51:53;3.20;;;1.00;;
32469;SDS011;18925;48.356;10.864;2023-01-16T01:52:26;5.50;;;1.35;;
32469;SDS011;18925;48.356;10.864;2023-01-16T01:52:59;4.60;;;1.10;;
32469;SDS011;18925;48.356;10.864;2023-01-16T01:53:41;2.60;;;0.93;;
32469;SDS011;18925;48.356;10.864;2023-01-16T01:54:14;3.22;;;1.00;;
32469;SDS011;18925;48.356;10.864;2023-01-16T01:54:50;2.03;;;1.00;;
32469;SDS011;18925;48.356;10.864;2023-01-16T01:55:24;2.55;;;1.00;;
32469;SDS011;18925;48.356;10.864;2023-01-16T01:55:55;3.70;;;1.10;;
32469;SDS011;18925;48.356;10.864;2023-01-16T01:56:35;2.42;;;1.00;;
32469;SDS011;18925;48.356;10.864;2023-01-16T01:57:12;2.55;;;0.77;;
32469;SDS011;18925;48.356;10.864;2023-01-16T01:57:51;2.95;;;0.85;;
32469;SDS011;18925;48.356;10.864;2023-01-16T01:58:27;5.22;;;1.20;;
32469;SDS011;18925;48.356;10.864;2023-01-16T01:59:00;2.08;;;0.88;;
32469;SDS011;18925;48.356;10.864;2023-01-16T01:59:38;2.58;;;1.00;;
32469;SDS011;18925;48.356;10.864;2023-01-16T02:00:14;5.28;;;0.90;;
32469;SDS011;18925;48.356;10.864;2023-01-16T02:00:50;2.17;;;0.77;;
32469;SDS011;18925;48.356;10.864;2023-01-16T02:01:23;3.63;;;1.10;;
32469;SDS011;18925;48.356;10.864;2023-01-16T02:01:56;5.97;;;1.10;;
32469;SDS011;18925;48.356;10.864;2023-01-16T02:02:28;5.50;;;1.38;;
32469;SDS011;18925;48.356;10.864;2023-01-16T02:03:41;4.43;;;1.00;;
32469;SDS011;18925;48.356;10.864;2023-01-16T02:04:18;3.70;;;1.08;;
32469;SDS011;18925;48.356;10.864;2023-01-16T02:04:53;2.17;;;1.00;;
32469;SDS011;18925;48.356;10.864;2023-01-16T02:05:28;3.10;;;1.10;;
32469;SDS011;18925;48.356;10.864;2023-01-16T02:06:05;3.60;;;1.00;;
32469;SDS011;18925;48.356;10.864;2023-01-16T02:06:58;3.40;;;1.10;;
32469;SDS011;18925;48.356;10.864;2023-01-16T02:07:33;4.18;;;1.00;;
32469;SDS011;18925;48.356;10.864;2023-01-16T02:08:04;4.68;;;1.48;;
32469;SDS011;18925;48.356;10.864;2023-01-16T02:08:36;7.43;;;1.98;;
32469;SDS011;18925;48.356;10.864;2023-01-16T02:09:07;2.90;;;1.33;;
32469;SDS011;18925;48.356;10.864;2023-01-16T02:09:37;2.25;;;0.90;;
32469;SDS011;18925;48.356;10.864;2023-01-16T02:10:10;3.95;;;1.20;;
32469;SDS011;18925;48.356;10.864;2023-01-16T02:11:08;3.85;;;1.25;;
32469;SDS011;18925;48.356;10.864;2023-01-16T02:12:40;7.35;;;0.85;;
32469;SDS011;18925;48.356;10.864;2023-01-16T02:13:11;3.72;;;1.00;;
32469;SDS011;18925;48.356;10.864;2023-01-16T02:13:42;2.15;;;0.70;;
32469;SDS011;18925;48.356;10.864;2023-01-16T02:14:13;4.22;;;1.00;;
32469;SDS011;18925;48.356;10.864;2023-01-16T02:14:46;3.60;;;0.93;;
32469;SDS011;18925;48.356;10.864;2023-01-16T02:15:19;2.70;;;0.90;;
32469;SDS011;18925;48.356;10.864;2023-01-16T02:15:53;2.35;;;1.02;;
32469;SDS011;18925;48.356;10.864;2023-01-16T02:16:45;1.98;;;0.80;;
32469;SDS011;18925;48.356;10.864;2023-01-16T02:18:31;2.63;;;0.77;;
32469;SDS011;18925;48.356;10.864;2023-01-16T02:20:18;1.50;;;0.93;;
32469;SDS011;18925;48.356;10.864;2023-01-16T02:20:58;4.55;;;1.00;;
32469;SDS011;18925;48.356;10.864;2023-01-16T02:21:52;2.45;;;0.90;;
32469;SDS011;18925;48.356;10.864;2023-01-16T02:26:37;1.38;;;0.85;;
32469;SDS011;18925;48.356;10.864;2023-01-16T02:27:53;5.32;;;0.88;;
32469;SDS011;18925;48.356;10.864;2023-01-16T02:28:57;2.67;;;0.73;;
32469;SDS011;18925;48.356;10.864;2023-01-16T02:29:52;1.85;;;0.98;;
32469;SDS011;18925;48.356;10.864;2023-01-16T02:31:04;3.15;;;0.70;;
32469;SDS011;18925;48.356;10.864;2023-01-16T02:38:35;6.15;;;1.00;;
32469;SDS011;18925;48.356;10.864;2023-01-16T02:39:18;3.17;;;1.27;;
32469;SDS011;18925;48.356;10.864;2023-01-16T02:40:39;4.07;;;1.17;;
32469;SDS011;18925;48.356;10.864;2023-01-16T02:40:57;4.55;;;1.02;;
32469;SDS011;18925;48.356;10.864;2023-01-16T02:42:44;1.48;;;0.88;;
32469;SDS011;18925;48.356;10.864;2023-01-16T02:45:27;3.75;;;1.30;;
32469;SDS011;18925;48.356;10.864;2023-01-16T02:47:09;2.80;;;0.80;;
32469;SDS011;18925;48.356;10.864;2023-01-16T02:47:46;3.20;;;0.93;;
32469;SDS011;18925;48.356;10.864;2023-01-16T02:48:28;2.35;;;0.80;;
32469;SDS011;18925;48.356;10.864;2023-01-16T02:50:04;5.30;;;0.77;;
32469;SDS011;18925;48.356;10.864;2023-01-16T02:51:46;2.55;;;1.00;;
32469;SDS011;18925;48.356;10.864;2023-01-16T02:52:22;3.88;;;0.95;;
32469;SDS011;18925;48.356;10.864;2023-01-16T02:53:29;3.60;;;1.00;;
32469;SDS011;18925;48.356;10.864;2023-01-16T02:54:50;2.22;;;1.20;;
32469;SDS011;18925;48.356;10.864;2023-01-16T02:55:31;2.92;;;1.08;;
32469;SDS011;18925;48.356;10.864;2023-01-16T02:56:06;6.90;;;1.15;;
32469;SDS011;18925;48.356;10.864;2023-01-16T02:57:22;5.13;;;1.10;;
32469;SDS011;18925;48.356;10.864;2023-01-16T02:57:38;5.28;;;1.02;;
32469;SDS011;18925;48.356;10.864;2023-01-16T02:58:13;4.53;;;0.90;;
32469;SDS011;18925;48.356;10.864;2023-01-16T02:58:46;2.10;;;0.88;;
32469;SDS011;18925;48.356;10.864;2023-01-16T02:59:18;2.60;;;1.10;;
32469;SDS011;18925;48.356;10.864;2023-01-16T02:59:51;2.42;;;1.05;;
32469;SDS011;18925;48.356;10.864;2023-01-16T03:00:22;1.67;;;1.10;;
32469;SDS011;18925;48.356;10.864;2023-01-16T03:00:53;4.65;;;0.93;;
32469;SDS011;18925;48.356;10.864;2023-01-16T03:01:26;2.45;;;1.13;;
32469;SDS011;18925;48.356;10.864;2023-01-16T03:01:57;4.30;;;1.52;;
32469;SDS011;18925;48.356;10.864;2023-01-16T03:02:27;1.95;;;0.80;;
32469;SDS011;18925;48.356;10.864;2023-01-16T03:02:58;3.85;;;1.30;;
32469;SDS011;18925;48.356;10.864;2023-01-16T03:05:16;4.65;;;1.00;;
32469;SDS011;18925;48.356;10.864;2023-01-16T03:05:46;3.53;;;1.45;;
32469;SDS011;18925;48.356;10.864;2023-01-16T03:07:24;6.30;;;1.20;;
32469;SDS011;18925;48.356;10.864;2023-01-16T03:08:52;1.50;;;0.70;;
32469;SDS011;18925;48.356;10.864;2023-01-16T03:11:15;2.33;;;0.93;;
32469;SDS011;18925;48.356;10.864;2023-01-16T03:13:00;6.40;;;1.65;;
32469;SDS011;18925;48.356;10.864;2023-01-16T03:13:51;3.70;;;1.02;;
32469;SDS011;18925;48.356;10.864;2023-01-16T03:16:47;1.90;;;0.93;;
32469;SDS011;18925;48.356;10.864;2023-01-16T03:17:39;3.47;;;0.90;;
32469;SDS011;18925;48.356;10.864;2023-01-16T03:19:06;1.85;;;1.00;;
32469;SDS011;18925;48.356;10.864;2023-01-16T03:20:08;3.25;;;0.80;;
32469;SDS011;18925;48.356;10.864;2023-01-16T03:21:32;5.47;;;0.90;;
32469;SDS011;18925;48.356;10.864;2023-01-16T03:22:15;3.28;;;1.38;;
32469;SDS011;18925;48.356;10.864;2023-01-16T03:23:50;3.30;;;0.90;;
32469;SDS011;18925;48.356;10.864;2023-01-16T03:24:26;2.35;;;0.90;;
32469;SDS011;18925;48.356;10.864;2023-01-16T03:25:10;1.35;;;0.85;;
32469;SDS011;18925;48.356;10.864;2023-01-16T03:25:54;2.13;;;0.98;;
32469;SDS011;18925;48.356;10.864;2023-01-16T03:29:11;2.60;;;0.98;;
32469;SDS011;18925;48.356;10.864;2023-01-16T03:30:10;2.78;;;1.08;;
32469;SDS011;18925;48.356;10.864;2023-01-16T03:30:51;1.60;;;0.80;;
32469;SDS011;18925;48.356;10.864;2023-01-16T03:31:54;5.97;;;1.08;;
32469;SDS011;18925;48.356;10.864;2023-01-16T03:32:37;3.55;;;1.20;;
32469;SDS011;18925;48.356;10.864;2023-01-16T03:34:40;5.40;;;0.90;;
32469;SDS011;18925;48.356;10.864;2023-01-16T03:35:19;3.47;;;0.95;;
32469;SDS011;18925;48.356;10.864;2023-01-16T03:35:59;3.13;;;1.20;;
32469;SDS011;18925;48.356;10.864;2023-01-16T03:36:45;2.83;;;1.10;;
32469;SDS011;18925;48.356;10.864;2023-01-16T03:37:33;1.60;;;0.82;;
32469;SDS011;18925;48.356;10.864;2023-01-16T03:38:11;1.38;;;1.00;;
32469;SDS011;18925;48.356;10.864;2023-01-16T03:38:44;3.08;;;1.20;;
32469;SDS011;18925;48.356;10.864;2023-01-16T03:39:18;1.77;;;0.82;;
32469;SDS011;18925;48.356;10.864;2023-01-16T03:39:55;2.22;;;1.20;;
32469;SDS011;18925;48.356;10.864;2023-01-16T03:40:30;2.67;;;0.77;;
32469;SDS011;18925;48.356;10.864;2023-01-16T03:41:05;2.33;;;1.05;;
32469;SDS011;18925;48.356;10.864;2023-01-16T03:41:38;6.05;;;1.10;;
32469;SDS011;18925;48.356;10.864;2023-01-16T03:42:12;4.43;;;1.00;;
32469;SDS011;18925;48.356;10.864;2023-01-16T03:42:48;2.00;;;0.85;;
32469;SDS011;18925;48.356;10.864;2023-01-16T03:43:30;1.92;;;1.00;;
32469;SDS011;18925;48.356;10.864;2023-01-16T03:44:12;4.22;;;1.73;;
32469;SDS011;18925;48.356;10.864;2023-01-16T03:44:53;2.72;;;0.82;;
32469;SDS011;18925;48.356;10.864;2023-01-16T03:46:14;5.38;;;1.30;;
32469;SDS011;18925;48.356;10.864;2023-01-16T03:46:26;4.18;;;0.88;;
32469;SDS011;18925;48.356;10.864;2023-01-16T03:47:00;2.00;;;0.90;;
32469;SDS011;18925;48.356;10.864;2023-01-16T03:47:34;1.83;;;0.90;;
32469;SDS011;18925;48.356;10.864;2023-01-16T03:49:05;3.60;;;1.00;;
32469;SDS011;18925;48.356;10.864;2023-01-16T03:49:40;1.08;;;0.98;;
32469;SDS011;18925;48.356;10.864;2023-01-16T03:50:15;1.98;;;0.80;;
32469;SDS011;18925;48.356;10.864;2023-01-16T03:50:51;1.48;;;1.00;;
32469;SDS011;18925;48.356;10.864;2023-01-16T03:51:25;1.85;;;0.85;;
32469;SDS011;18925;48.356;10.864;2023-01-16T03:52:00;2.92;;;1.27;;
32469;SDS011;18925;48.356;10.864;2023-01-16T03:52:35;3.80;;;0.88;;
32469;SDS011;18925;48.356;10.864;2023-01-16T03:53:10;2.67;;;1.05;;
32469;SDS011;18925;48.356;10.864;2023-01-16T03:53:45;3.47;;;1.08;;
32469;SDS011;18925;48.356;10.864;2023-01-16T03:56:47;1.27;;;0.82;;
32469;SDS011;18925;48.356;10.864;2023-01-16T03:57:38;2.17;;;0.90;;
32469;SDS011;18925;48.356;10.864;2023-01-16T03:58:14;1.80;;;1.00;;
32469;SDS011;18925;48.356;10.864;2023-01-16T03:58:54;2.97;;;1.25;;
32469;SDS011;18925;48.356;10.864;2023-01-16T03:59:25;2.67;;;1.00;;
32469;SDS011;18925;48.356;10.864;2023-01-16T03:59:56;2.88;;;0.98;;
32469;SDS011;18925;48.356;10.864;2023-01-16T04:00:31;2.00;;;1.00;;
32469;SDS011;18925;48.356;10.864;2023-01-16T04:01:56;8.77;;;1.35;;
32469;SDS011;18925;48.356;10.864;2023-01-16T04:02:11;3.00;;;0.90;;
32469;SDS011;18925;48.356;10.864;2023-01-16T04:03:21;1.42;;;1.00;;
32469;SDS011;18925;48.356;10.864;2023-01-16T04:04:01;5.10;;;1.10;;
32469;SDS011;18925;48.356;10.864;2023-01-16T04:04:38;5.65;;;1.20;;
32469;SDS011;18925;48.356;10.864;2023-01-16T04:05:25;2.08;;;0.90;;
32469;SDS011;18925;48.356;10.864;2023-01-16T04:06:04;3.22;;;1.00;;
32469;SDS011;18925;48.356;10.864;2023-01-16T04:07:25;2.38;;;1.30;;
32469;SDS011;18925;48.356;10.864;2023-01-16T04:08:07;2.50;;;0.82;;
32469;SDS011;18925;48.356;10.864;2023-01-16T04:08:42;2.90;;;1.38;;
32469;SDS011;18925;48.356;10.864;2023-01-16T04:09:26;4.72;;;1.17;;
32469;SDS011;18925;48.356;10.864;2023-01-16T04:10:06;4.70;;;1.23;;